Řízení letového provozu České republiky  
Aktualizace dat:  24.09.2020 18:29:26 UTC English version
   METEO Zobrazení stránky:  24.09.2020 18:30:56 UTC  
vysvětlivky
METAR EDDB 241820Z 12003KT CAVOK 16/09 Q1004 NOSIG=
METAR EDDC 241820Z 13003KT CAVOK 18/11 Q1005 NOSIG=
METAR EDDE 241820Z 18006KT CAVOK 18/09 Q1004 NOSIG=
METAR EDDF 241820Z 17003KT 9999 -RA FEW035 SCT048 15/14 Q1003 NOSIG=
METAR EDDM 241820Z 06003KT 030V090 CAVOK 17/13 Q1005 NOSIG=
METAR EDDN 241820Z 10007KT CAVOK 15/12 Q1004 NOSIG=
METAR EDDP 241820Z 14005KT CAVOK 17/07 Q1004 NOSIG=
METAR EDDT 241820Z 10003KT CAVOK 16/09 Q1004 NOSIG=
METAR EDQM NIL
METAR EPBY 241800Z 18005KT CAVOK 19/12 Q1005=
METAR EPGD 241800Z 17004KT CAVOK 18/11 Q1005=
METAR EPKK 241800Z VRB01KT 9999 FEW034 18/15 Q1009=
METAR EPKT 241800Z 18002KT CAVOK 14/12 Q1009=
METAR EPLL 241800Z VRB02KT 9999 MIFG NSC 17/16 Q1007=
METAR EPPO 241800Z 24003KT CAVOK 18/13 Q1006=
METAR EPRZ 241800Z 20004KT CAVOK 18/14 Q1010=
METAR EPWA 241800Z VRB01KT CAVOK 18/17 Q1007 NOSIG=
METAR EPWR 241800Z 22005KT CAVOK 20/12 Q1007=
METAR LHBP 241800Z 10003KT 080V140 CAVOK 19/14 Q1010 NOSIG=
METAR LHSM 241745Z AUTO 17004KT CAVOK 19/16 Q1009 RESHRA=
METAR LKBC 241800Z AUTO 06004KT 020V090 9999 FEW130 OVC170 17/13 Q1007=
METAR LKCV 241800Z 15003KT CAVOK 17/14 Q1007 NOSIG RMK BLU BLU=
METAR LKKB 241800Z 34001KT CAVOK 17/12 Q1007 NOSIG RMK BLU BLU=
METAR LKKU NIL
METAR LKKV 241800Z 10004KT CAVOK 12/10 Q1007 RMK REG QNH 1003=
METAR LKLN 241830Z AUTO VRB01KT 9999 SCT160 14/12 Q1006=
METAR LKMT 241800Z 18007KT CAVOK 19/15 Q1008 NOSIG RMK REG QNH 1003=
METAR LKNA 241800Z 18004KT 130V220 CAVOK 18/12 Q1008 NOSIG RMK BLU BLU=
METAR LKPD 241800Z 00000KT CAVOK 18/14 Q1007 NOSIG RMK BLU BLU=
METAR LKPJ 241800Z AUTO 19005KT 9999 FEW250 19/13 Q1008=
METAR LKPR 241800Z VRB01KT CAVOK 18/10 Q1007 NOSIG RMK REG QNH 1003=
METAR LKTB 241800Z 12005KT CAVOK 19/14 Q1008 NOSIG RMK REG QNH 1003=
METAR LKVO NIL
METAR LOWI 241820Z 09010KT 010V150 9999 FEW070 BKN100 20/10 Q1005 NOSIG=
METAR LOWL 241820Z AUTO 07008KT 9999 NCD 18/14 Q1006 NOSIG=
METAR LOWS 241820Z VRB02KT 9999 FEW050 SCT120 15/13 Q1005 NOSIG=
METAR LOWW 241820Z 14006KT CAVOK 17/13 Q1008 NOSIG=
METAR LZIB 241800Z VRB02KT CAVOK 20/15 Q1009 NOSIG=
METAR LZKZ 241800Z 01002KT 9999 BKN043 19/16 Q1011=
METAR LZMC 241800Z 14006KT CAVOK 21/15 Q1009=
METAR LZPP 241800Z 09004KT CAVOK 18/15 Q1009=
METAR LZSL 241800Z VRB02KT CAVOK 17/14 Q1010=
METAR LZTT 241800Z VRB02KT 9999 MIFG FEW030 13/12 Q1012=
METAR LZZI 241800Z 12002KT CAVOK 15/14 Q1010=